createdAt,value
2019-03-31T00:00:03.921Z,9.23
2019-03-31T00:00:38.890Z,9.25
2019-03-31T00:01:10.796Z,9.26
2019-03-31T00:01:43.846Z,9.26
2019-03-31T00:02:16.940Z,9.24
2019-03-31T00:02:48.138Z,9.23
2019-03-31T00:03:19.346Z,9.23
2019-03-31T00:03:50.468Z,9.21
2019-03-31T00:04:21.675Z,9.20
2019-03-31T00:04:52.896Z,9.20
2019-03-31T00:05:24.112Z,9.18
2019-03-31T00:05:55.281Z,9.16
2019-03-31T00:06:26.499Z,9.16
2019-03-31T00:06:57.652Z,9.16
2019-03-31T00:07:28.938Z,9.16
2019-03-31T00:08:00.169Z,9.14
2019-03-31T00:08:31.363Z,9.13
2019-03-31T00:09:05.243Z,9.12
2019-03-31T00:09:36.523Z,9.12
2019-03-31T00:10:07.687Z,9.10
2019-03-31T00:10:38.868Z,9.10
2019-03-31T00:11:10.026Z,9.09
2019-03-31T00:11:41.169Z,9.09
2019-03-31T00:12:12.335Z,9.06
2019-03-31T00:12:44.506Z,9.06
2019-03-31T00:13:15.651Z,9.05
2019-03-31T00:13:46.813Z,9.05
2019-03-31T00:14:17.977Z,9.05
2019-03-31T00:14:49.166Z,9.05
2019-03-31T00:15:20.350Z,9.05
2019-03-31T00:15:51.487Z,9.04
2019-03-31T00:16:22.729Z,9.06
2019-03-31T00:16:53.953Z,9.05
2019-03-31T00:17:26.107Z,9.06
2019-03-31T00:17:57.262Z,9.05
2019-03-31T00:18:28.572Z,9.06
2019-03-31T00:18:59.729Z,9.07
2019-03-31T00:19:30.885Z,9.07
2019-03-31T00:20:03.917Z,9.07
2019-03-31T00:20:35.096Z,9.06
2019-03-31T00:21:06.252Z,9.04
2019-03-31T00:21:38.952Z,9.02
2019-03-31T00:22:10.115Z,9.02
2019-03-31T00:22:41.334Z,9.01
2019-03-31T00:23:12.488Z,9.00
2019-03-31T00:23:43.694Z,8.99
2019-03-31T00:24:14.841Z,8.98
2019-03-31T00:24:46.083Z,8.97
2019-03-31T00:25:17.275Z,8.95
2019-03-31T00:25:48.592Z,8.94
2019-03-31T00:26:19.746Z,8.92
2019-03-31T00:26:50.961Z,8.89
2019-03-31T00:27:22.129Z,8.88
2019-03-31T00:27:53.349Z,8.86
2019-03-31T00:28:24.511Z,8.86
2019-03-31T00:28:55.711Z,8.86
2019-03-31T00:29:26.872Z,8.88
2019-03-31T00:29:58.068Z,8.88
2019-03-31T00:30:29.235Z,8.88
2019-03-31T00:31:00.414Z,8.88
2019-03-31T00:31:31.583Z,8.88
2019-03-31T00:32:02.880Z,8.89
2019-03-31T00:32:34.055Z,8.88
2019-03-31T00:33:05.222Z,8.88
2019-03-31T00:33:36.395Z,8.87
2019-03-31T00:34:07.581Z,8.88
2019-03-31T00:34:38.753Z,8.88
2019-03-31T00:35:09.937Z,8.88
2019-03-31T00:35:41.121Z,8.89
2019-03-31T00:36:12.293Z,8.90
2019-03-31T00:36:43.477Z,8.92
2019-03-31T00:37:14.660Z,8.92
2019-03-31T00:37:45.833Z,8.92
2019-03-31T00:38:17.041Z,8.89
2019-03-31T00:38:48.243Z,8.90
2019-03-31T00:39:19.416Z,8.89
2019-03-31T00:39:50.594Z,8.88
2019-03-31T00:40:21.767Z,8.88
2019-03-31T00:40:52.968Z,8.87
2019-03-31T00:41:24.135Z,8.88
2019-03-31T00:41:55.627Z,8.87
2019-03-31T00:42:26.798Z,8.87
2019-03-31T00:42:58.030Z,8.87
2019-03-31T00:43:29.197Z,8.81
2019-03-31T00:44:00.394Z,8.85
2019-03-31T00:44:31.546Z,8.83
2019-03-31T00:45:05.456Z,8.83
2019-03-31T00:45:36.631Z,8.81
2019-03-31T00:46:07.840Z,8.81
2019-03-31T00:46:39.012Z,8.79
2019-03-31T00:47:10.218Z,8.79
2019-03-31T00:47:41.378Z,8.79
2019-03-31T00:48:12.602Z,8.79
2019-03-31T00:48:43.841Z,8.77
2019-03-31T00:49:15.076Z,8.77
2019-03-31T00:49:46.252Z,8.78
2019-03-31T00:50:17.447Z,8.78
2019-03-31T00:50:48.653Z,8.78
2019-03-31T00:51:19.820Z,8.77
2019-03-31T00:51:51.000Z,8.78
2019-03-31T00:52:22.208Z,8.78
2019-03-31T00:52:53.392Z,8.77
2019-03-31T00:53:24.581Z,8.77
2019-03-31T00:53:55.757Z,8.75
2019-03-31T00:54:27.839Z,8.75
2019-03-31T00:54:59.219Z,8.74
2019-03-31T00:55:30.394Z,8.73
2019-03-31T00:56:01.569Z,8.72
2019-03-31T00:56:32.744Z,8.71
2019-03-31T00:57:03.926Z,8.70
2019-03-31T00:57:35.097Z,8.69
2019-03-31T00:58:06.273Z,8.67
2019-03-31T00:58:37.527Z,8.67
2019-03-31T00:59:08.768Z,8.66
2019-03-31T00:59:39.986Z,8.66
2019-03-31T01:00:13.160Z,8.67
2019-03-31T01:00:46.250Z,8.65
2019-03-31T01:01:35.657Z,8.62
2019-03-31T01:02:00.432Z,8.62
2019-03-31T01:02:33.254Z,8.61
2019-03-31T01:03:04.680Z,8.59
2019-03-31T01:03:37.006Z,8.59
2019-03-31T01:04:08.284Z,8.57
2019-03-31T01:04:39.515Z,8.57
2019-03-31T01:05:10.739Z,8.58
2019-03-31T01:05:42.072Z,8.57
2019-03-31T01:06:13.726Z,8.56
2019-03-31T01:06:45.158Z,8.58
2019-03-31T01:07:16.396Z,8.56
2019-03-31T01:07:47.624Z,8.55
2019-03-31T01:08:18.866Z,8.54
2019-03-31T01:08:50.038Z,8.54
2019-03-31T01:09:24.820Z,8.54
2019-03-31T01:09:56.342Z,8.54
2019-03-31T01:10:27.527Z,8.53
2019-03-31T01:10:58.789Z,8.53
2019-03-31T01:11:29.978Z,8.52
2019-03-31T01:12:01.228Z,8.52
2019-03-31T01:12:32.457Z,8.51
2019-03-31T01:13:04.398Z,8.51
2019-03-31T01:13:35.700Z,8.50
2019-03-31T01:14:08.946Z,8.50
2019-03-31T01:14:40.255Z,8.49
2019-03-31T01:15:13.283Z,8.48
2019-03-31T01:15:44.639Z,8.36
2019-03-31T01:16:15.777Z,8.47
2019-03-31T01:16:47.007Z,8.48
2019-03-31T01:17:18.939Z,8.49
2019-03-31T01:17:50.467Z,8.47
2019-03-31T01:18:21.617Z,8.49
2019-03-31T01:18:52.819Z,8.49
2019-03-31T01:19:24.203Z,8.49
2019-03-31T01:19:56.427Z,8.49
2019-03-31T01:20:27.566Z,8.49
2019-03-31T01:20:58.781Z,8.51
2019-03-31T01:21:30.953Z,8.50
2019-03-31T01:22:02.157Z,8.50
2019-03-31T01:22:33.307Z,8.38
2019-03-31T01:23:04.904Z,8.51
2019-03-31T01:23:36.053Z,8.51
2019-03-31T01:24:07.261Z,8.51
2019-03-31T01:24:38.401Z,8.46
2019-03-31T01:25:09.719Z,8.52
2019-03-31T01:25:41.879Z,8.52
2019-03-31T01:26:14.936Z,8.51
2019-03-31T01:26:46.101Z,8.50
2019-03-31T01:27:17.443Z,8.49
2019-03-31T01:27:48.689Z,8.50
2019-03-31T01:28:19.913Z,8.49
2019-03-31T01:28:51.133Z,8.49
2019-03-31T01:29:22.354Z,8.49
2019-03-31T01:29:53.619Z,8.48
2019-03-31T01:30:25.249Z,8.47
2019-03-31T01:30:56.500Z,8.47
2019-03-31T01:31:28.655Z,8.47
2019-03-31T01:32:00.126Z,8.46
2019-03-31T01:32:31.280Z,8.37
2019-03-31T01:33:02.582Z,8.46
2019-03-31T01:33:33.757Z,8.46
2019-03-31T01:34:05.070Z,8.45
2019-03-31T01:34:36.280Z,8.45
2019-03-31T01:35:07.805Z,8.45
2019-03-31T01:35:38.950Z,8.45
2019-03-31T01:36:10.276Z,8.44
2019-03-31T01:36:41.439Z,8.45
2019-03-31T01:37:13.135Z,8.43
2019-03-31T01:37:44.287Z,8.44
2019-03-31T01:38:15.481Z,8.43
2019-03-31T01:38:49.679Z,8.44
2019-03-31T01:39:23.789Z,8.44
2019-03-31T01:39:55.020Z,8.44
2019-03-31T01:40:26.165Z,8.43
2019-03-31T01:40:57.371Z,8.35
2019-03-31T01:41:28.568Z,8.35
2019-03-31T01:41:59.722Z,8.37
2019-03-31T01:42:32.776Z,8.47
2019-03-31T01:43:03.970Z,8.45
2019-03-31T01:43:35.129Z,8.44
2019-03-31T01:44:06.310Z,8.43
2019-03-31T01:44:37.473Z,8.41
2019-03-31T01:45:08.683Z,8.40
2019-03-31T01:45:39.837Z,8.37
2019-03-31T01:46:12.445Z,8.30
2019-03-31T01:46:43.587Z,8.31
2019-03-31T01:47:16.676Z,8.29
2019-03-31T01:47:47.837Z,8.28
2019-03-31T01:48:19.033Z,8.24
2019-03-31T01:48:50.277Z,8.23
2019-03-31T01:49:21.473Z,8.22
2019-03-31T01:49:52.723Z,8.21
2019-03-31T01:50:24.221Z,8.17
2019-03-31T01:50:55.411Z,8.18
2019-03-31T01:51:26.617Z,8.16
2019-03-31T01:51:57.865Z,8.15
2019-03-31T01:52:29.067Z,8.14
2019-03-31T01:53:00.222Z,8.12
2019-03-31T01:53:31.438Z,8.12
2019-03-31T01:54:02.877Z,8.12
2019-03-31T01:54:34.088Z,8.10
2019-03-31T01:55:05.327Z,8.09
2019-03-31T01:55:36.530Z,8.09
2019-03-31T01:56:07.684Z,8.07
2019-03-31T01:56:38.897Z,8.07
2019-03-31T01:57:10.068Z,8.07
2019-03-31T01:57:41.222Z,8.06
2019-03-31T01:58:12.400Z,8.06
2019-03-31T01:58:43.629Z,8.06
2019-03-31T01:59:14.872Z,8.06
2019-03-31T01:59:46.104Z,8.05
2019-03-31T02:00:35.496Z,8.05
2019-03-31T02:01:17.360Z,8.05
2019-03-31T02:01:48.600Z,8.05
2019-03-31T02:02:27.191Z,8.00
2019-03-31T02:02:58.346Z,8.02
2019-03-31T02:03:29.541Z,8.02
2019-03-31T02:04:00.697Z,8.02
2019-03-31T02:04:31.915Z,8.02
2019-03-31T02:05:06.017Z,8.02
2019-03-31T02:05:38.179Z,8.02
2019-03-31T02:06:09.365Z,8.02
2019-03-31T02:06:40.533Z,8.01
2019-03-31T02:07:11.703Z,8.02
2019-03-31T02:07:42.875Z,8.01
2019-03-31T02:08:14.081Z,8.00
2019-03-31T02:08:45.319Z,7.98
2019-03-31T02:09:16.498Z,7.99
2019-03-31T02:09:47.681Z,7.99
2019-03-31T02:10:18.851Z,8.00
2019-03-31T02:10:50.131Z,8.00
2019-03-31T02:11:21.330Z,8.00
2019-03-31T02:11:52.486Z,8.01
2019-03-31T02:12:23.653Z,8.02
2019-03-31T02:12:54.885Z,8.03
2019-03-31T02:13:26.037Z,8.04
2019-03-31T02:13:57.233Z,8.04
2019-03-31T02:14:28.375Z,8.05
2019-03-31T02:14:59.575Z,8.06
2019-03-31T02:15:30.735Z,8.07
2019-03-31T02:16:01.938Z,8.08
2019-03-31T02:16:33.111Z,8.08
2019-03-31T02:17:04.312Z,8.10
2019-03-31T02:17:35.493Z,8.09
2019-03-31T02:18:07.235Z,8.08
2019-03-31T02:18:38.492Z,8.11
2019-03-31T02:19:09.751Z,8.10
2019-03-31T02:19:40.989Z,8.12
2019-03-31T02:20:12.214Z,8.12
2019-03-31T02:20:43.443Z,8.12
2019-03-31T02:21:14.656Z,8.13
2019-03-31T02:21:45.926Z,8.12
2019-03-31T02:22:17.158Z,8.15
2019-03-31T02:22:49.399Z,8.15
2019-03-31T02:23:20.561Z,8.15
2019-03-31T02:23:51.764Z,8.17
2019-03-31T02:24:22.902Z,8.17
2019-03-31T02:24:54.123Z,8.18
2019-03-31T02:25:25.352Z,8.18
2019-03-31T02:25:56.575Z,8.20
2019-03-31T02:26:27.981Z,8.20
2019-03-31T02:26:59.590Z,8.20
2019-03-31T02:27:30.781Z,8.22
2019-03-31T02:28:01.999Z,8.22
2019-03-31T02:28:33.168Z,8.22
2019-03-31T02:29:04.389Z,8.22
2019-03-31T02:29:35.545Z,8.22
2019-03-31T02:30:06.851Z,8.23
2019-03-31T02:30:38.043Z,8.23
2019-03-31T02:31:09.296Z,8.23
2019-03-31T02:31:40.448Z,8.22
2019-03-31T02:32:23.222Z,8.12
2019-03-31T02:32:44.945Z,8.22
2019-03-31T02:33:16.196Z,8.17
2019-03-31T02:33:48.429Z,8.21
2019-03-31T02:34:19.747Z,8.19
2019-03-31T02:34:51.005Z,8.18
2019-03-31T02:35:22.254Z,8.18
2019-03-31T02:35:53.493Z,8.18
2019-03-31T02:36:25.033Z,8.17
2019-03-31T02:36:56.264Z,8.11
2019-03-31T02:37:27.523Z,8.17
2019-03-31T02:38:00.688Z,8.15
2019-03-31T02:38:31.833Z,8.15
2019-03-31T02:39:03.932Z,8.15
2019-03-31T02:39:35.297Z,8.16
2019-03-31T02:40:06.472Z,8.16
2019-03-31T02:40:37.656Z,8.16
2019-03-31T02:41:08.796Z,8.16
2019-03-31T02:41:39.953Z,8.09
2019-03-31T02:42:11.125Z,8.18
2019-03-31T02:42:42.310Z,8.17
2019-03-31T02:43:13.482Z,8.18
2019-03-31T02:43:44.674Z,8.18
2019-03-31T02:44:15.842Z,8.19
2019-03-31T02:44:47.026Z,8.20
2019-03-31T02:45:18.191Z,8.19
2019-03-31T02:45:49.401Z,8.20
2019-03-31T02:46:20.575Z,8.13
2019-03-31T02:46:51.757Z,8.21
2019-03-31T02:47:22.935Z,8.15
2019-03-31T02:47:54.134Z,8.22
2019-03-31T02:48:25.417Z,8.23
2019-03-31T02:48:56.620Z,8.24
2019-03-31T02:49:28.916Z,8.24
2019-03-31T02:50:00.602Z,8.24
2019-03-31T02:50:47.925Z,8.24
2019-03-31T02:51:19.111Z,8.25
2019-03-31T02:51:50.296Z,8.27
2019-03-31T02:52:21.472Z,8.27
2019-03-31T02:52:52.648Z,8.28
2019-03-31T02:53:23.875Z,8.29
2019-03-31T02:53:55.025Z,8.28
2019-03-31T02:54:26.216Z,8.28
2019-03-31T02:54:57.368Z,8.30
2019-03-31T02:55:28.583Z,8.23
2019-03-31T02:55:59.744Z,8.27
2019-03-31T02:56:30.941Z,8.31
2019-03-31T02:57:02.784Z,8.22
2019-03-31T02:57:33.991Z,8.22
2019-03-31T02:58:05.179Z,8.33
2019-03-31T02:58:36.396Z,8.32
2019-03-31T02:59:07.811Z,8.32
2019-03-31T02:59:39.153Z,8.31
2019-03-31T03:00:10.375Z,8.32
2019-03-31T03:00:41.698Z,8.32
2019-03-31T03:01:13.126Z,8.31
2019-03-31T03:01:45.885Z,8.28
2019-03-31T03:02:17.103Z,8.20
2019-03-31T03:02:48.352Z,8.29
2019-03-31T03:03:19.593Z,8.29
2019-03-31T03:03:50.850Z,8.24
2019-03-31T03:04:22.078Z,8.27
2019-03-31T03:04:53.314Z,8.17
2019-03-31T03:05:24.791Z,8.17
2019-03-31T03:05:56.027Z,8.26
2019-03-31T03:06:27.259Z,8.27
2019-03-31T03:06:59.303Z,8.27
2019-03-31T03:07:30.828Z,8.28
2019-03-31T03:08:02.063Z,8.29
2019-03-31T03:08:33.357Z,8.29
2019-03-31T03:09:05.242Z,8.30
2019-03-31T03:09:36.470Z,8.32
2019-03-31T03:10:07.655Z,8.33
2019-03-31T03:10:39.909Z,8.33
2019-03-31T03:11:12.159Z,8.35
2019-03-31T03:11:43.355Z,8.35
2019-03-31T03:12:14.497Z,8.37
2019-03-31T03:12:45.708Z,8.37
2019-03-31T03:13:16.864Z,8.37
2019-03-31T03:13:48.057Z,8.36
2019-03-31T03:14:19.238Z,8.39
2019-03-31T03:14:50.566Z,8.38
2019-03-31T03:15:28.458Z,8.38
2019-03-31T03:16:13.968Z,8.39
2019-03-31T03:16:45.185Z,8.39
2019-03-31T03:17:16.404Z,8.41
2019-03-31T03:17:47.673Z,8.41
2019-03-31T03:18:18.852Z,8.35
2019-03-31T03:18:50.052Z,8.40
2019-03-31T03:19:22.242Z,8.40
2019-03-31T03:19:53.487Z,8.39
2019-03-31T03:20:25.018Z,8.40
2019-03-31T03:20:56.279Z,8.29
2019-03-31T03:21:27.479Z,8.29
2019-03-31T03:21:58.762Z,8.30
2019-03-31T03:22:29.966Z,8.22
2019-03-31T03:23:01.102Z,8.34
2019-03-31T03:23:32.322Z,8.40
2019-03-31T03:24:03.517Z,8.42
2019-03-31T03:24:34.805Z,8.42
2019-03-31T03:25:05.958Z,8.31
2019-03-31T03:25:54.527Z,8.46
2019-03-31T03:26:10.208Z,8.46
2019-03-31T03:26:41.557Z,8.48
2019-03-31T03:27:12.700Z,8.49
2019-03-31T03:27:43.922Z,8.49
2019-03-31T03:28:15.080Z,8.50
2019-03-31T03:28:46.280Z,8.50
2019-03-31T03:29:17.461Z,8.50
2019-03-31T03:29:48.642Z,8.50
2019-03-31T03:30:20.984Z,8.51
2019-03-31T03:30:52.365Z,8.50
2019-03-31T03:31:23.682Z,8.49
2019-03-31T03:31:55.006Z,8.48
2019-03-31T03:32:26.273Z,8.48
2019-03-31T03:33:14.922Z,8.39
2019-03-31T03:33:30.545Z,8.42
2019-03-31T03:34:01.799Z,8.49
2019-03-31T03:34:33.076Z,8.49
2019-03-31T03:35:04.292Z,8.50
2019-03-31T03:35:35.454Z,8.51
2019-03-31T03:36:06.642Z,8.50
2019-03-31T03:36:37.809Z,8.50
2019-03-31T03:37:08.979Z,8.48
2019-03-31T03:37:40.163Z,8.42
2019-03-31T03:38:11.344Z,8.48
2019-03-31T03:38:42.536Z,8.45
2019-03-31T03:39:13.714Z,8.46
2019-03-31T03:39:44.893Z,8.45
2019-03-31T03:40:16.065Z,8.44
2019-03-31T03:40:47.262Z,8.34
2019-03-31T03:41:18.410Z,8.46
2019-03-31T03:41:49.707Z,8.45
2019-03-31T03:42:20.895Z,8.46
2019-03-31T03:42:52.095Z,8.45
2019-03-31T03:43:23.234Z,8.43
2019-03-31T03:43:57.083Z,8.42
2019-03-31T03:44:27.518Z,8.42
2019-03-31T03:44:58.713Z,8.38
2019-03-31T03:45:29.995Z,8.43
2019-03-31T03:46:01.176Z,8.32
2019-03-31T03:46:32.435Z,8.43
2019-03-31T03:47:03.712Z,8.42
2019-03-31T03:47:34.902Z,8.43
2019-03-31T03:48:06.072Z,8.43
2019-03-31T03:48:37.257Z,8.41
2019-03-31T03:49:08.475Z,8.39
2019-03-31T03:49:39.716Z,8.39
2019-03-31T03:50:10.875Z,8.38
2019-03-31T03:50:42.089Z,8.39
2019-03-31T03:51:13.241Z,8.38
2019-03-31T03:51:44.447Z,8.36
2019-03-31T03:52:15.604Z,8.36
2019-03-31T03:52:46.836Z,8.35
2019-03-31T03:53:17.991Z,8.34
2019-03-31T03:53:49.198Z,8.32
2019-03-31T03:54:21.327Z,8.30
2019-03-31T03:54:52.678Z,8.28
2019-03-31T03:55:23.927Z,8.27
2019-03-31T03:55:55.429Z,8.25
2019-03-31T03:56:29.097Z,8.23
2019-03-31T03:56:59.770Z,8.22
2019-03-31T03:57:31.013Z,8.16
2019-03-31T03:58:02.220Z,8.22
2019-03-31T03:58:33.367Z,8.21
2019-03-31T03:59:04.566Z,8.20
2019-03-31T03:59:35.744Z,8.20
2019-03-31T04:00:07.054Z,8.21
2019-03-31T04:00:38.209Z,8.20
2019-03-31T04:01:11.321Z,8.20
2019-03-31T04:01:42.481Z,8.19
2019-03-31T04:02:13.709Z,8.18
2019-03-31T04:02:44.863Z,8.18
2019-03-31T04:03:30.042Z,8.20
2019-03-31T04:03:49.124Z,8.19
2019-03-31T04:04:20.311Z,8.16
2019-03-31T04:04:51.491Z,8.16
2019-03-31T04:05:22.736Z,8.14
2019-03-31T04:05:53.967Z,8.13
2019-03-31T04:06:25.446Z,8.13
2019-03-31T04:06:56.696Z,8.12
2019-03-31T04:07:28.012Z,8.11
2019-03-31T04:07:59.346Z,8.09
2019-03-31T04:08:30.580Z,8.08
2019-03-31T04:09:01.804Z,8.06
2019-03-31T04:09:34.116Z,8.05
2019-03-31T04:10:27.414Z,7.92
2019-03-31T04:11:12.128Z,7.92
2019-03-31T04:11:43.435Z,8.01
2019-03-31T04:12:14.741Z,7.91
2019-03-31T04:12:46.012Z,7.91
2019-03-31T04:13:17.255Z,7.99
2019-03-31T04:13:48.436Z,7.98
2019-03-31T04:14:19.642Z,7.97
2019-03-31T04:14:50.817Z,7.96
2019-03-31T04:15:22.051Z,7.96
2019-03-31T04:15:53.226Z,7.95
2019-03-31T04:16:24.432Z,7.94
2019-03-31T04:16:55.582Z,7.93
2019-03-31T04:17:26.794Z,7.82
2019-03-31T04:17:57.931Z,7.93
2019-03-31T04:18:29.129Z,7.92
2019-03-31T04:19:00.318Z,7.92
2019-03-31T04:19:31.498Z,7.92
2019-03-31T04:20:03.875Z,7.91
2019-03-31T04:20:39.107Z,7.93
2019-03-31T04:21:08.140Z,7.94
2019-03-31T04:21:39.323Z,7.95
2019-03-31T04:22:10.486Z,7.94
2019-03-31T04:22:41.658Z,7.94
2019-03-31T04:23:12.842Z,7.95
2019-03-31T04:23:44.024Z,7.95
2019-03-31T04:24:16.217Z,7.91
2019-03-31T04:24:47.483Z,7.95
2019-03-31T04:25:18.672Z,7.95
2019-03-31T04:25:49.855Z,7.93
2019-03-31T04:26:21.035Z,7.95
2019-03-31T04:26:52.253Z,7.94
2019-03-31T04:27:23.452Z,7.96
2019-03-31T04:27:54.624Z,7.96
2019-03-31T04:28:25.798Z,7.94
2019-03-31T04:28:56.987Z,7.94
2019-03-31T04:29:28.330Z,7.88
2019-03-31T04:29:59.529Z,7.95
2019-03-31T04:30:30.726Z,7.94
2019-03-31T04:31:01.906Z,7.94
2019-03-31T04:31:33.088Z,7.94
2019-03-31T04:32:04.371Z,7.93
2019-03-31T04:32:38.753Z,7.96
2019-03-31T04:33:08.774Z,7.98
2019-03-31T04:33:50.423Z,7.98
2019-03-31T04:34:13.067Z,8.02
2019-03-31T04:34:44.266Z,8.02
2019-03-31T04:35:15.465Z,8.05
2019-03-31T04:35:46.663Z,8.07
2019-03-31T04:36:17.868Z,8.07
2019-03-31T04:36:49.004Z,8.07
2019-03-31T04:37:20.228Z,8.01
2019-03-31T04:37:51.386Z,8.11
2019-03-31T04:38:22.593Z,8.11
2019-03-31T04:38:53.751Z,8.12
2019-03-31T04:39:25.179Z,8.14
2019-03-31T04:39:56.419Z,8.14
2019-03-31T04:40:27.842Z,8.07
2019-03-31T04:40:59.089Z,8.17
2019-03-31T04:41:30.331Z,8.17
2019-03-31T04:42:01.554Z,8.19
2019-03-31T04:42:32.785Z,8.18
2019-03-31T04:43:04.109Z,8.18
2019-03-31T04:43:35.342Z,8.17
2019-03-31T04:44:06.570Z,8.18
2019-03-31T04:44:39.753Z,8.16
2019-03-31T04:45:10.922Z,8.16
2019-03-31T04:45:42.125Z,8.16
2019-03-31T04:46:13.266Z,8.16
2019-03-31T04:46:45.454Z,8.16
2019-03-31T04:47:16.606Z,8.17
2019-03-31T04:47:47.813Z,8.17
2019-03-31T04:48:18.963Z,8.17
2019-03-31T04:48:50.165Z,8.17
2019-03-31T04:49:21.335Z,8.15
2019-03-31T04:49:52.537Z,8.15
2019-03-31T04:50:23.718Z,8.16
2019-03-31T04:50:56.053Z,8.16
2019-03-31T04:51:27.198Z,8.15
2019-03-31T04:51:58.579Z,8.15
2019-03-31T04:52:29.720Z,8.14
2019-03-31T04:53:00.922Z,8.15
2019-03-31T04:53:32.077Z,8.17
2019-03-31T04:54:03.394Z,8.16
2019-03-31T04:54:34.532Z,8.16
2019-03-31T04:55:05.742Z,8.15
2019-03-31T04:55:36.898Z,8.16
2019-03-31T04:56:08.144Z,8.16
2019-03-31T04:56:39.369Z,8.16
2019-03-31T04:57:10.647Z,8.07
2019-03-31T04:57:43.036Z,8.14
2019-03-31T04:58:14.290Z,8.15
2019-03-31T04:58:45.512Z,8.15
2019-03-31T04:59:16.833Z,8.14
2019-03-31T04:59:50.898Z,8.13
2019-03-31T05:00:22.138Z,8.12
2019-03-31T05:00:53.360Z,8.12
2019-03-31T05:01:24.500Z,8.09
2019-03-31T05:01:55.698Z,8.07
2019-03-31T05:02:27.437Z,8.07
2019-03-31T05:02:58.763Z,8.04
2019-03-31T05:03:29.917Z,8.02
2019-03-31T05:04:05.025Z,8.02
2019-03-31T05:04:34.180Z,8.01
2019-03-31T05:05:05.376Z,7.98
2019-03-31T05:05:36.570Z,7.97
2019-03-31T05:06:07.828Z,7.96
2019-03-31T05:06:38.965Z,7.95
2019-03-31T05:07:10.181Z,7.96
2019-03-31T05:07:41.331Z,7.85
2019-03-31T05:08:12.532Z,7.93
2019-03-31T05:08:43.709Z,7.90
2019-03-31T05:09:14.914Z,7.90
2019-03-31T05:09:46.047Z,7.90
2019-03-31T05:10:17.229Z,7.89
2019-03-31T05:10:48.405Z,7.90
2019-03-31T05:11:19.609Z,7.91
2019-03-31T05:11:50.802Z,7.89
2019-03-31T05:12:21.968Z,7.85
2019-03-31T05:12:53.152Z,7.83
2019-03-31T05:13:24.321Z,7.80
2019-03-31T05:13:57.404Z,7.77
2019-03-31T05:14:28.573Z,7.74
2019-03-31T05:14:59.742Z,7.71
2019-03-31T05:15:30.932Z,7.68
2019-03-31T05:16:02.315Z,7.66
2019-03-31T05:16:33.625Z,7.63
2019-03-31T05:17:04.806Z,7.60
2019-03-31T05:17:36.113Z,7.56
2019-03-31T05:18:07.358Z,7.55
2019-03-31T05:18:38.561Z,7.54
2019-03-31T05:19:09.744Z,7.54
2019-03-31T05:19:40.913Z,7.52
2019-03-31T05:20:12.108Z,7.50
2019-03-31T05:20:43.270Z,7.48
2019-03-31T05:21:14.450Z,7.45
2019-03-31T05:21:45.672Z,7.45
2019-03-31T05:22:16.906Z,7.45
2019-03-31T05:22:48.100Z,7.44
2019-03-31T05:23:19.362Z,7.38
2019-03-31T05:23:50.552Z,7.45
2019-03-31T05:24:21.736Z,7.44
2019-03-31T05:24:52.914Z,7.44
2019-03-31T05:25:24.067Z,7.44
2019-03-31T05:25:55.606Z,7.43
2019-03-31T05:26:26.783Z,7.43
2019-03-31T05:26:57.954Z,7.41
2019-03-31T05:27:29.115Z,7.39
2019-03-31T05:28:00.311Z,7.39
2019-03-31T05:28:31.819Z,7.38
2019-03-31T05:29:03.019Z,7.29
2019-03-31T05:29:34.207Z,7.39
2019-03-31T05:30:05.393Z,7.32
2019-03-31T05:30:36.567Z,7.41
2019-03-31T05:31:07.762Z,7.42
2019-03-31T05:31:40.815Z,7.32
2019-03-31T05:32:12.031Z,7.32
2019-03-31T05:32:43.176Z,7.43
2019-03-31T05:33:15.201Z,7.43
2019-03-31T05:33:46.356Z,7.41
2019-03-31T05:34:19.753Z,7.43
2019-03-31T05:34:51.028Z,7.44
2019-03-31T05:35:22.216Z,7.45
2019-03-31T05:35:53.368Z,7.46
2019-03-31T05:36:24.866Z,7.47
2019-03-31T05:36:56.029Z,7.47
2019-03-31T05:37:27.228Z,7.48
2019-03-31T05:37:58.380Z,7.49
2019-03-31T05:38:29.604Z,7.51
2019-03-31T05:39:00.729Z,7.51
2019-03-31T05:39:31.940Z,7.50
2019-03-31T05:40:03.812Z,7.49
2019-03-31T05:40:35.988Z,7.49
2019-03-31T05:41:07.170Z,7.45
2019-03-31T05:41:38.422Z,7.54
2019-03-31T05:42:09.582Z,7.43
2019-03-31T05:42:40.778Z,7.43
2019-03-31T05:43:11.964Z,7.53
2019-03-31T05:43:43.180Z,7.54
2019-03-31T05:44:14.328Z,7.54
2019-03-31T05:44:45.545Z,7.56
2019-03-31T05:45:16.712Z,7.49
2019-03-31T05:45:47.932Z,7.49
2019-03-31T05:46:19.108Z,7.53
2019-03-31T05:46:50.354Z,7.65
2019-03-31T05:47:22.616Z,7.65
2019-03-31T05:47:53.855Z,7.68
2019-03-31T05:48:25.452Z,7.69
2019-03-31T05:48:56.676Z,7.72
2019-03-31T05:49:27.975Z,7.64
2019-03-31T05:49:59.193Z,7.74
2019-03-31T05:50:30.439Z,7.75
2019-03-31T05:51:01.693Z,7.77
2019-03-31T05:51:32.939Z,7.77
2019-03-31T05:52:04.104Z,7.77
2019-03-31T05:52:35.326Z,7.79
2019-03-31T05:53:06.485Z,7.79
2019-03-31T05:53:37.698Z,7.80
2019-03-31T05:54:08.857Z,7.80
2019-03-31T05:54:40.071Z,7.74
2019-03-31T05:55:11.221Z,7.80
2019-03-31T05:55:42.442Z,7.81
2019-03-31T05:56:13.586Z,7.80
2019-03-31T05:56:44.793Z,7.79
2019-03-31T05:57:15.937Z,7.81
2019-03-31T05:57:47.147Z,7.83
2019-03-31T05:58:18.297Z,7.83
2019-03-31T05:58:49.508Z,7.83
2019-03-31T05:59:20.650Z,7.83
2019-03-31T05:59:51.867Z,7.84
2019-03-31T06:00:33.960Z,7.75
2019-03-31T06:01:05.216Z,7.85
2019-03-31T06:01:36.421Z,7.85
2019-03-31T06:02:07.573Z,7.87
2019-03-31T06:02:38.767Z,7.89
2019-03-31T06:03:09.905Z,7.89
2019-03-31T06:03:41.114Z,7.90
2019-03-31T06:04:12.272Z,7.90
2019-03-31T06:04:43.471Z,7.92
2019-03-31T06:05:14.622Z,7.93
2019-03-31T06:05:46.950Z,7.95
2019-03-31T06:06:18.815Z,7.96
2019-03-31T06:06:49.998Z,7.97
2019-03-31T06:07:21.179Z,7.91
2019-03-31T06:07:52.362Z,7.98
2019-03-31T06:08:23.542Z,8.00
2019-03-31T06:08:54.924Z,8.01
2019-03-31T06:09:26.099Z,7.90
2019-03-31T06:09:59.175Z,7.94
2019-03-31T06:10:30.357Z,8.05
2019-03-31T06:11:01.545Z,8.05
2019-03-31T06:11:32.757Z,8.05
2019-03-31T06:12:03.960Z,8.06
2019-03-31T06:12:35.120Z,8.06
2019-03-31T06:13:06.312Z,8.06
2019-03-31T06:13:37.469Z,8.08
2019-03-31T06:14:08.669Z,8.02
2019-03-31T06:14:39.823Z,8.09
2019-03-31T06:15:11.043Z,8.07
2019-03-31T06:15:42.200Z,8.03
2019-03-31T06:16:13.407Z,8.08
2019-03-31T06:16:44.578Z,8.08
2019-03-31T06:17:15.821Z,8.09
2019-03-31T06:17:46.999Z,8.12
2019-03-31T06:18:18.258Z,8.15
2019-03-31T06:18:49.514Z,8.17
2019-03-31T06:19:20.697Z,8.20
2019-03-31T06:19:51.882Z,8.23
2019-03-31T06:20:23.059Z,8.23
2019-03-31T06:20:54.249Z,8.25
2019-03-31T06:21:28.989Z,8.24
2019-03-31T06:21:58.707Z,8.26
2019-03-31T06:22:29.887Z,8.26
2019-03-31T06:23:01.070Z,8.25
2019-03-31T06:23:32.240Z,8.25
2019-03-31T06:24:03.433Z,8.25
2019-03-31T06:24:34.644Z,8.24
2019-03-31T06:25:05.940Z,8.23
2019-03-31T06:25:37.124Z,8.22
2019-03-31T06:26:08.318Z,8.22
2019-03-31T06:26:39.520Z,8.22
2019-03-31T06:27:10.725Z,8.21
2019-03-31T06:27:41.920Z,8.21
2019-03-31T06:28:13.094Z,8.22
2019-03-31T06:28:44.266Z,8.21
2019-03-31T06:29:15.446Z,8.18
2019-03-31T06:29:46.619Z,8.17
2019-03-31T06:30:17.798Z,8.16
2019-03-31T06:30:48.978Z,8.14
2019-03-31T06:31:20.144Z,8.16
2019-03-31T06:31:51.344Z,8.09
2019-03-31T06:32:22.539Z,8.15
2019-03-31T06:32:55.431Z,8.14
2019-03-31T06:33:27.828Z,8.14
2019-03-31T06:33:59.027Z,8.14
2019-03-31T06:34:30.227Z,8.14
2019-03-31T06:35:01.507Z,8.15
2019-03-31T06:35:32.690Z,8.16
2019-03-31T06:36:04.876Z,8.17
2019-03-31T06:36:36.059Z,8.18
2019-03-31T06:37:07.264Z,8.17
2019-03-31T06:37:38.408Z,8.08
2019-03-31T06:38:09.625Z,8.10
2019-03-31T06:38:40.797Z,8.14
2019-03-31T06:39:12.047Z,8.22
2019-03-31T06:39:43.253Z,8.21
2019-03-31T06:40:14.472Z,8.22
2019-03-31T06:40:47.517Z,8.23
2019-03-31T06:41:18.696Z,8.23
2019-03-31T06:41:50.863Z,8.23
2019-03-31T06:42:22.073Z,8.16
2019-03-31T06:42:53.221Z,8.16
2019-03-31T06:43:24.437Z,8.25
2019-03-31T06:43:55.587Z,8.27
2019-03-31T06:44:26.805Z,8.28
2019-03-31T06:44:57.947Z,8.28
2019-03-31T06:45:29.156Z,8.28
2019-03-31T06:46:00.411Z,8.31
2019-03-31T06:46:32.626Z,8.30
2019-03-31T06:47:03.760Z,8.31
2019-03-31T06:47:35.004Z,8.30
2019-03-31T06:48:06.158Z,8.30
2019-03-31T06:48:37.359Z,8.31
2019-03-31T06:49:08.534Z,8.31
2019-03-31T06:49:39.740Z,8.31
2019-03-31T06:50:10.897Z,8.31
2019-03-31T06:50:42.129Z,8.31
2019-03-31T06:51:13.276Z,8.31
2019-03-31T06:51:44.519Z,8.32
2019-03-31T06:52:15.695Z,8.33
2019-03-31T06:52:46.957Z,8.32
2019-03-31T06:53:18.116Z,8.32
2019-03-31T06:53:49.322Z,8.32
2019-03-31T06:54:20.506Z,8.33
2019-03-31T06:54:51.723Z,8.35
2019-03-31T06:55:22.858Z,8.35
2019-03-31T06:55:54.046Z,8.37
2019-03-31T06:56:25.214Z,8.38
2019-03-31T06:56:56.427Z,8.38
2019-03-31T06:57:27.810Z,8.39
2019-03-31T06:57:59.048Z,8.41
2019-03-31T06:58:30.301Z,8.43
2019-03-31T06:59:01.557Z,8.45
2019-03-31T06:59:32.771Z,8.47